createdAt,value
2018-06-13T00:01:51.852Z,5.07
2018-06-13T00:04:19.464Z,4.13
2018-06-13T00:06:47.048Z,4.40
2018-06-13T00:09:14.667Z,4.90
2018-06-13T00:11:42.239Z,5.07
2018-06-13T00:14:09.828Z,5.33
2018-06-13T00:16:37.424Z,5.73
2018-06-13T00:19:05.075Z,5.43
2018-06-13T00:21:32.659Z,6.23
2018-06-13T00:24:00.273Z,7.13
2018-06-13T00:26:27.873Z,7.00
2018-06-13T00:28:55.484Z,6.53
2018-06-13T00:31:23.052Z,7.40
2018-06-13T00:33:50.665Z,7.87
2018-06-13T00:36:18.257Z,7.80
2018-06-13T00:38:45.825Z,6.50
2018-06-13T00:41:13.413Z,6.77
2018-06-13T00:43:40.920Z,7.10
2018-06-13T00:46:08.500Z,8.10
2018-06-13T00:48:36.092Z,7.60
2018-06-13T00:51:03.704Z,7.40
2018-06-13T00:53:31.352Z,7.80
2018-06-13T00:56:10.370Z,7.03
2018-06-13T00:58:37.996Z,6.80
2018-06-13T01:01:05.577Z,6.80
2018-06-13T01:03:33.160Z,7.00
2018-06-13T01:06:00.720Z,6.07
2018-06-13T01:08:28.456Z,6.50
2018-06-13T01:10:57.056Z,5.83
2018-06-13T01:13:24.660Z,6.37
2018-06-13T01:15:52.232Z,6.20
2018-06-13T01:18:19.807Z,6.67
2018-06-13T01:20:47.416Z,6.70
2018-06-13T01:23:14.996Z,6.07
2018-06-13T01:25:43.593Z,6.60
2018-06-13T01:28:11.214Z,6.43
2018-06-13T01:30:38.823Z,6.90
2018-06-13T01:33:06.517Z,6.33
2018-06-13T01:35:34.109Z,6.50
2018-06-13T01:38:01.729Z,5.97
2018-06-13T01:40:29.345Z,6.00
2018-06-13T01:42:56.940Z,5.90
2018-06-13T01:45:25.585Z,5.30
2018-06-13T01:47:53.173Z,5.97
2018-06-13T01:50:20.757Z,7.10
2018-06-13T01:52:48.338Z,6.07
2018-06-13T01:55:15.897Z,6.73
2018-06-13T01:57:43.472Z,7.00
2018-06-13T02:00:11.057Z,7.43
2018-06-13T02:02:38.700Z,6.90
2018-06-13T02:05:06.285Z,6.60
2018-06-13T02:07:33.860Z,6.90
2018-06-13T02:10:01.433Z,7.20
2018-06-13T02:12:29.032Z,8.23
2018-06-13T02:14:56.596Z,8.67
2018-06-13T02:17:24.224Z,9.40
2018-06-13T02:19:51.804Z,9.07
2018-06-13T02:22:19.379Z,9.77
2018-06-13T02:24:46.941Z,9.20
2018-06-13T02:27:14.528Z,9.03
2018-06-13T02:29:42.109Z,9.33
2018-06-13T02:32:09.701Z,10.77
2018-06-13T02:34:37.332Z,10.10
2018-06-13T02:37:04.896Z,9.47
2018-06-13T02:39:32.520Z,9.50
2018-06-13T02:42:00.121Z,10.47
2018-06-13T02:44:27.769Z,9.20
2018-06-13T02:47:00.680Z,8.53
2018-06-13T02:49:28.260Z,9.50
2018-06-13T02:51:55.828Z,8.83
2018-06-13T02:54:23.428Z,9.57
2018-06-13T02:56:51.052Z,9.47
2018-06-13T02:59:18.697Z,9.60
2018-06-13T03:01:47.320Z,10.50
2018-06-13T03:04:14.908Z,7.77
2018-06-13T03:06:42.496Z,9.50
2018-06-13T03:09:10.063Z,8.83
2018-06-13T03:11:37.673Z,8.20
2018-06-13T03:14:05.284Z,8.77
2018-06-13T03:16:32.853Z,10.47
2018-06-13T03:19:00.460Z,9.60
2018-06-13T03:21:28.021Z,9.10
2018-06-13T03:23:55.601Z,9.00
2018-06-13T03:26:23.221Z,10.60
2018-06-13T03:28:50.824Z,8.70
2018-06-13T03:31:19.272Z,9.63
2018-06-13T03:33:46.882Z,9.50
2018-06-13T03:36:14.461Z,9.10
2018-06-13T03:38:42.148Z,9.63
2018-06-13T03:41:09.791Z,9.73
2018-06-13T03:43:37.257Z,7.30
2018-06-13T03:46:05.888Z,9.17
2018-06-13T03:48:33.480Z,8.67
2018-06-13T03:51:01.117Z,8.80
2018-06-13T03:53:28.780Z,9.07
2018-06-13T03:55:56.365Z,8.77
2018-06-13T03:58:23.980Z,8.63
2018-06-13T04:00:51.589Z,8.60
2018-06-13T04:03:19.180Z,9.80
2018-06-13T04:05:46.782Z,10.03
2018-06-13T04:08:14.389Z,8.83
2018-06-13T04:10:41.961Z,10.17
2018-06-13T04:13:09.632Z,6.83
2018-06-13T04:15:37.372Z,8.93
2018-06-13T04:18:05.864Z,5.77
2018-06-13T04:20:33.644Z,3.90
2018-06-13T04:23:01.280Z,1.93
2018-06-13T04:25:28.841Z,2.60
2018-06-13T04:27:56.446Z,3.37
2018-06-13T04:30:24.021Z,3.17
2018-06-13T04:32:51.603Z,2.10
2018-06-13T04:35:19.218Z,1.67
2018-06-13T04:37:46.830Z,2.30
2018-06-13T04:40:14.400Z,2.50
2018-06-13T04:42:42.004Z,2.70
2018-06-13T04:45:09.576Z,2.63
2018-06-13T04:47:37.169Z,3.97
2018-06-13T04:50:04.752Z,6.13
2018-06-13T04:52:32.346Z,9.30
2018-06-13T04:54:59.928Z,12.10
2018-06-13T04:57:27.506Z,12.37
2018-06-13T04:59:55.089Z,12.67
2018-06-13T05:02:22.675Z,12.37
2018-06-13T05:04:50.240Z,11.77
2018-06-13T05:07:17.828Z,12.07
2018-06-13T05:09:45.425Z,12.20
2018-06-13T05:12:13.050Z,12.53
2018-06-13T05:14:40.647Z,12.73
2018-06-13T05:17:08.239Z,11.90
2018-06-13T05:19:35.796Z,12.50
2018-06-13T05:22:03.425Z,13.03
2018-06-13T05:24:30.984Z,12.63
2018-06-13T05:26:58.570Z,11.77
2018-06-13T05:29:26.191Z,11.93
2018-06-13T05:31:53.785Z,12.70
2018-06-13T05:34:21.411Z,11.40
2018-06-13T05:36:49.018Z,11.57
2018-06-13T05:39:16.584Z,11.67
2018-06-13T05:41:44.201Z,10.43
2018-06-13T05:44:11.773Z,9.03
2018-06-13T05:46:39.356Z,8.83
2018-06-13T05:49:06.921Z,8.53
2018-06-13T05:51:34.508Z,8.17
2018-06-13T05:54:02.068Z,9.17
2018-06-13T05:56:29.692Z,8.40
2018-06-13T05:58:57.304Z,8.93
2018-06-13T06:01:24.963Z,9.80
2018-06-13T06:03:52.552Z,9.83
2018-06-13T06:06:20.136Z,9.10
2018-06-13T06:08:47.729Z,10.70
2018-06-13T06:11:15.320Z,11.50
2018-06-13T06:13:42.927Z,10.23
2018-06-13T06:16:10.528Z,11.30
2018-06-13T06:18:38.133Z,10.90
2018-06-13T06:21:05.793Z,9.67
2018-06-13T06:23:33.424Z,10.93
2018-06-13T06:26:00.977Z,8.70
2018-06-13T06:28:28.565Z,11.03
2018-06-13T06:30:56.165Z,7.80
2018-06-13T06:33:23.789Z,8.50
2018-06-13T06:35:51.396Z,8.47
2018-06-13T06:38:18.966Z,8.77
2018-06-13T06:40:46.581Z,9.00
2018-06-13T06:43:14.179Z,8.93
2018-06-13T06:45:41.747Z,8.53
2018-06-13T06:48:10.644Z,9.47
2018-06-13T06:50:38.244Z,7.93
2018-06-13T06:53:05.895Z,8.10
2018-06-13T06:55:33.536Z,8.70
2018-06-13T06:58:01.113Z,7.80
2018-06-13T07:00:28.693Z,6.70
2018-06-13T07:02:56.268Z,7.47
2018-06-13T07:05:23.829Z,7.90
2018-06-13T07:07:51.472Z,9.97
2018-06-13T07:10:19.040Z,9.80
2018-06-13T07:12:46.640Z,9.50
2018-06-13T07:15:14.137Z,9.53
2018-06-13T07:17:41.724Z,7.90
2018-06-13T07:20:09.316Z,7.50
2018-06-13T07:22:36.906Z,8.07
2018-06-13T07:25:04.489Z,7.80
2018-06-13T07:27:32.141Z,7.03
2018-06-13T07:29:59.728Z,6.20
2018-06-13T07:32:27.440Z,6.20
2018-06-13T07:34:55.037Z,5.70
2018-06-13T07:37:22.645Z,5.40
2018-06-13T07:39:50.241Z,5.70
2018-06-13T07:42:17.844Z,5.70
2018-06-13T07:44:45.407Z,6.50
2018-06-13T07:47:12.981Z,7.10
2018-06-13T07:49:40.585Z,6.23
2018-06-13T07:52:08.181Z,8.53
2018-06-13T07:54:35.790Z,7.03
2018-06-13T07:57:03.379Z,8.70
2018-06-13T07:59:30.972Z,9.57
2018-06-13T08:01:58.533Z,9.40
2018-06-13T08:04:26.120Z,10.10
2018-06-13T08:06:53.712Z,10.57
2018-06-13T08:09:21.353Z,9.90
2018-06-13T08:11:48.935Z,9.33
2018-06-13T08:14:17.545Z,9.70
2018-06-13T08:16:45.163Z,10.53
2018-06-13T08:19:12.740Z,9.90
2018-06-13T08:21:40.344Z,10.87
2018-06-13T08:24:07.905Z,13.30
2018-06-13T08:26:35.513Z,11.60
2018-06-13T08:29:03.128Z,13.83
2018-06-13T08:31:30.745Z,13.33
2018-06-13T08:33:58.313Z,12.20
2018-06-13T08:36:25.893Z,12.57
2018-06-13T08:38:53.477Z,13.10
2018-06-13T08:41:21.068Z,13.17
2018-06-13T08:43:48.685Z,15.10
2018-06-13T08:46:16.264Z,15.57
2018-06-13T08:48:44.125Z,15.03
2018-06-13T08:51:11.612Z,14.77
2018-06-13T08:53:39.201Z,14.57
2018-06-13T08:56:06.769Z,15.40
2018-06-13T08:58:34.348Z,15.70
2018-06-13T09:01:01.919Z,15.93
2018-06-13T09:03:29.517Z,16.37
2018-06-13T09:05:58.141Z,17.67
2018-06-13T09:08:25.728Z,19.73
2018-06-13T09:10:53.293Z,18.40
2018-06-13T09:13:20.999Z,17.50
2018-06-13T09:15:49.600Z,18.13
2018-06-13T09:18:17.221Z,19.00
2018-06-13T09:20:44.809Z,18.17
2018-06-13T09:23:12.398Z,19.47
2018-06-13T09:25:39.988Z,18.93
2018-06-13T09:28:07.622Z,19.10
2018-06-13T09:30:35.205Z,19.27
2018-06-13T09:33:02.787Z,19.23
2018-06-13T09:35:30.429Z,20.70
2018-06-13T09:37:58.096Z,18.93
2018-06-13T09:40:25.732Z,20.10
2018-06-13T09:42:53.324Z,21.23
2018-06-13T09:45:20.948Z,21.23
2018-06-13T09:47:48.580Z,19.40
2018-06-13T09:50:16.141Z,20.70
2018-06-13T09:52:43.713Z,19.70
2018-06-13T09:55:11.345Z,18.77
2018-06-13T09:57:39.053Z,20.10
2018-06-13T10:01:14.076Z,21.23
2018-06-13T10:03:41.696Z,21.70
2018-06-13T10:06:09.285Z,21.00
2018-06-13T10:08:36.908Z,20.73
2018-06-13T10:11:04.492Z,22.00
2018-06-13T10:13:32.061Z,22.53
2018-06-13T10:15:59.678Z,22.97
2018-06-13T10:18:27.344Z,21.23
2018-06-13T10:20:54.965Z,22.93
2018-06-13T10:23:22.598Z,22.60
2018-06-13T10:25:50.197Z,21.37
2018-06-13T10:28:17.819Z,21.37
2018-06-13T10:30:45.379Z,21.40
2018-06-13T10:33:12.955Z,19.87
2018-06-13T10:35:40.549Z,21.40
2018-06-13T10:38:08.136Z,21.60
2018-06-13T10:40:35.731Z,21.73
2018-06-13T10:43:03.348Z,22.33
2018-06-13T10:45:30.968Z,21.30
2018-06-13T10:47:58.544Z,20.90
2018-06-13T10:50:26.141Z,21.83
2018-06-13T10:52:53.804Z,20.83
2018-06-13T10:55:21.429Z,21.00
2018-06-13T10:57:48.992Z,23.17
2018-06-13T11:00:16.625Z,22.70
2018-06-13T11:02:44.204Z,21.53
2018-06-13T11:05:11.797Z,22.93
2018-06-13T11:07:39.379Z,22.67
2018-06-13T11:10:06.992Z,22.00
2018-06-13T11:12:34.577Z,20.93
2018-06-13T11:15:02.173Z,22.63
2018-06-13T11:17:29.736Z,23.47
2018-06-13T11:19:57.302Z,24.03
2018-06-13T11:22:24.952Z,21.30
2018-06-13T11:24:52.552Z,22.77
2018-06-13T11:27:20.146Z,21.30
2018-06-13T11:29:47.739Z,23.77
2018-06-13T11:32:15.302Z,22.80
2018-06-13T11:34:42.904Z,22.47
2018-06-13T11:37:10.472Z,22.80
2018-06-13T11:39:38.061Z,20.70
2018-06-13T11:42:05.694Z,22.63
2018-06-13T11:44:33.249Z,23.90
2018-06-13T11:47:00.862Z,21.97
2018-06-13T11:49:28.452Z,19.50
2018-06-13T11:51:56.038Z,22.40
2018-06-13T11:54:23.634Z,20.50
2018-06-13T11:56:52.320Z,21.70
2018-06-13T11:59:19.897Z,21.57
2018-06-13T12:01:47.553Z,21.80
2018-06-13T12:04:15.141Z,24.27
2018-06-13T12:06:42.752Z,22.97
2018-06-13T12:09:10.321Z,23.83
2018-06-13T12:11:37.934Z,24.27
2018-06-13T12:14:05.594Z,22.90
2018-06-13T12:16:33.208Z,21.50
2018-06-13T12:19:00.776Z,23.50
2018-06-13T12:21:29.316Z,23.90
2018-06-13T12:23:56.814Z,23.23
2018-06-13T12:26:24.383Z,23.77
2018-06-13T12:28:52.003Z,23.30
2018-06-13T12:31:19.609Z,22.97
2018-06-13T12:33:47.168Z,24.40
2018-06-13T12:36:14.767Z,22.60
2018-06-13T12:38:42.436Z,23.30
2018-06-13T12:41:10.054Z,25.40
2018-06-13T12:43:37.634Z,23.27
2018-06-13T12:46:05.219Z,25.80
2018-06-13T12:48:32.825Z,25.43
2018-06-13T12:51:00.432Z,24.70
2018-06-13T12:53:28.004Z,25.57
2018-06-13T12:55:55.632Z,27.00
2018-06-13T12:58:23.282Z,27.10
2018-06-13T13:00:50.856Z,26.17
2018-06-13T13:03:18.493Z,26.17
2018-06-13T13:05:46.089Z,26.33
2018-06-13T13:08:13.717Z,26.13
2018-06-13T13:10:41.314Z,26.07
2018-06-13T13:13:08.884Z,25.07
2018-06-13T13:15:37.528Z,26.07
2018-06-13T13:18:05.123Z,27.10
2018-06-13T13:20:32.692Z,24.93
2018-06-13T13:23:00.280Z,25.37
2018-06-13T13:25:27.906Z,24.20
2018-06-13T13:27:55.485Z,21.77
2018-06-13T13:30:23.099Z,23.70
2018-06-13T13:32:50.793Z,27.90
2018-06-13T13:35:18.509Z,25.10
2018-06-13T13:37:46.081Z,25.50
2018-06-13T13:40:13.697Z,23.83
2018-06-13T13:42:41.972Z,24.60
2018-06-13T13:45:10.532Z,24.87
2018-06-13T13:47:39.172Z,22.70
2018-06-13T13:50:06.756Z,22.90
2018-06-13T13:52:34.390Z,23.97
2018-06-13T13:55:02.020Z,25.67
2018-06-13T13:57:30.577Z,24.73
2018-06-13T13:59:58.312Z,25.87
2018-06-13T14:02:26.605Z,26.40
2018-06-13T14:04:54.168Z,23.37
2018-06-13T14:07:21.772Z,22.53
2018-06-13T14:09:49.353Z,25.60
2018-06-13T14:12:16.990Z,25.30
2018-06-13T14:14:44.528Z,23.07
2018-06-13T14:17:11.995Z,24.87
2018-06-13T14:19:39.601Z,25.30
2018-06-13T14:22:07.270Z,24.77
2018-06-13T14:24:34.849Z,24.67
2018-06-13T14:27:02.409Z,23.40
2018-06-13T14:29:29.979Z,25.30
2018-06-13T14:31:57.575Z,25.00
2018-06-13T14:34:25.162Z,22.00
2018-06-13T14:36:52.749Z,22.87
2018-06-13T14:39:20.308Z,23.07
2018-06-13T14:41:47.940Z,17.70
2018-06-13T14:44:15.519Z,19.30
2018-06-13T14:46:43.169Z,21.90
2018-06-13T14:49:10.777Z,22.77
2018-06-13T14:51:38.348Z,20.20
2018-06-13T14:54:05.993Z,18.60
2018-06-13T14:56:34.205Z,20.20
2018-06-13T14:59:02.289Z,18.90
2018-06-13T15:01:30.162Z,21.37
2018-06-13T15:03:57.780Z,18.00
2018-06-13T15:06:25.849Z,17.87
2018-06-13T15:08:55.981Z,18.07
2018-06-13T15:11:23.689Z,16.33
2018-06-13T15:13:51.260Z,16.43
2018-06-13T15:16:19.804Z,11.83
2018-06-13T15:18:48.053Z,12.50
2018-06-13T15:21:15.857Z,16.50
2018-06-13T15:23:43.433Z,15.83
2018-06-13T15:26:11.037Z,16.90
2018-06-13T15:28:38.657Z,16.33
2018-06-13T15:31:06.397Z,16.33
2018-06-13T15:33:33.984Z,17.80
2018-06-13T15:36:01.565Z,18.80
2018-06-13T15:38:29.163Z,17.87
2018-06-13T15:40:58.204Z,16.57
2018-06-13T15:43:25.832Z,13.93
2018-06-13T15:45:53.483Z,15.57
2018-06-13T15:48:21.044Z,16.83
2018-06-13T15:50:49.038Z,15.70
2018-06-13T15:53:16.656Z,15.57
2018-06-13T15:55:44.291Z,15.57
2018-06-13T15:58:11.897Z,15.67
2018-06-13T16:00:39.497Z,15.90
2018-06-13T16:03:07.561Z,16.30
2018-06-13T16:05:35.296Z,14.90
2018-06-13T16:08:02.926Z,15.30
2018-06-13T16:10:30.524Z,16.43
2018-06-13T16:12:58.108Z,15.23
2018-06-13T16:15:25.744Z,14.17
2018-06-13T16:17:53.352Z,17.43
2018-06-13T16:20:20.950Z,16.80
2018-06-13T16:22:48.532Z,15.43
2018-06-13T16:25:16.084Z,15.70
2018-06-13T16:27:43.685Z,16.93
2018-06-13T16:30:11.268Z,16.57
2018-06-13T16:32:38.891Z,16.23
2018-06-13T16:35:06.623Z,15.73
2018-06-13T16:37:34.205Z,16.50
2018-06-13T16:40:01.845Z,18.00
2018-06-13T16:42:29.451Z,15.60
2018-06-13T16:44:57.208Z,14.90
2018-06-13T16:47:24.925Z,14.93
2018-06-13T16:49:52.489Z,15.00
2018-06-13T16:52:31.452Z,15.80
2018-06-13T16:55:24.255Z,15.27
2018-06-13T16:57:52.092Z,15.53
2018-06-13T17:00:21.504Z,16.60
2018-06-13T17:02:49.929Z,14.27
2018-06-13T17:05:17.711Z,12.50
2018-06-13T17:07:45.726Z,16.50
2018-06-13T17:10:13.701Z,16.80
2018-06-13T17:12:41.821Z,20.23
2018-06-13T17:15:09.470Z,27.40
2018-06-13T17:17:37.090Z,15.57
2018-06-13T17:20:04.692Z,15.83
2018-06-13T17:22:32.288Z,15.40
2018-06-13T17:24:59.898Z,14.77
2018-06-13T17:27:28.189Z,15.83
2018-06-13T17:29:56.069Z,17.20
2018-06-13T17:32:25.369Z,21.23
2018-06-13T17:34:54.041Z,19.80
2018-06-13T17:37:21.821Z,18.13
2018-06-13T17:39:49.692Z,16.87
2018-06-13T17:42:17.353Z,19.87
2018-06-13T17:44:45.905Z,16.43
2018-06-13T17:47:13.696Z,16.07
2018-06-13T17:49:41.864Z,18.17
2018-06-13T17:52:09.656Z,16.37
2018-06-13T17:54:37.269Z,15.20
2018-06-13T17:57:05.176Z,16.43
2018-06-13T17:59:33.724Z,17.43
2018-06-13T18:02:02.134Z,15.80
2018-06-13T18:04:29.709Z,15.90
2018-06-13T18:06:57.297Z,17.10
2018-06-13T18:09:24.862Z,19.47
2018-06-13T18:11:52.468Z,17.00
2018-06-13T18:14:20.049Z,18.93
2018-06-13T18:16:47.861Z,17.07
2018-06-13T18:19:15.461Z,15.97
2018-06-13T18:21:43.072Z,17.57
2018-06-13T18:24:11.177Z,18.73
2018-06-13T18:26:40.368Z,17.70
2018-06-13T18:29:08.560Z,19.80
2018-06-13T18:31:36.133Z,19.20
2018-06-13T18:34:05.894Z,18.27
2018-06-13T18:36:33.444Z,16.77
2018-06-13T18:39:01.955Z,19.23
2018-06-13T18:41:29.649Z,19.97
2018-06-13T18:43:57.243Z,18.03
2018-06-13T18:46:24.821Z,18.67
2018-06-13T18:48:52.377Z,21.70
2018-06-13T18:51:19.980Z,19.57
2018-06-13T18:53:47.597Z,18.87
2018-06-13T18:56:15.205Z,19.42
2018-06-13T18:58:42.848Z,17.80
2018-06-13T19:01:10.485Z,17.57
2018-06-13T19:03:38.057Z,20.37
2018-06-13T19:06:06.649Z,17.77
2018-06-13T19:08:34.300Z,18.00
2018-06-13T19:11:01.873Z,16.80
2018-06-13T19:13:29.460Z,15.40
2018-06-13T19:15:57.059Z,14.83
2018-06-13T19:18:24.615Z,16.37
2018-06-13T19:20:52.257Z,13.03
2018-06-13T19:23:19.845Z,12.90
2018-06-13T19:25:47.411Z,13.83
2018-06-13T19:28:14.993Z,16.80
2018-06-13T19:30:42.628Z,18.07
2018-06-13T19:33:10.412Z,18.77
2018-06-13T19:35:37.980Z,20.77
2018-06-13T19:38:05.546Z,18.37
2018-06-13T19:40:33.464Z,13.20
2018-06-13T19:43:01.059Z,49.23
2018-06-13T19:45:28.656Z,16.60
2018-06-13T19:48:01.965Z,14.00
2018-06-13T19:50:29.889Z,13.77
2018-06-13T19:53:03.279Z,12.00
2018-06-13T19:55:37.589Z,11.40
2018-06-13T19:58:05.184Z,11.90
2018-06-13T20:00:33.449Z,12.00
2018-06-13T20:03:06.797Z,12.43
2018-06-13T20:05:41.672Z,13.00
2018-06-13T20:08:09.264Z,12.40
2018-06-13T20:10:36.868Z,12.47
2018-06-13T20:13:10.217Z,13.03
2018-06-13T20:15:43.581Z,12.17
2018-06-13T20:18:16.784Z,12.17
2018-06-13T20:20:44.459Z,12.93
2018-06-13T20:23:12.745Z,13.90
2018-06-13T20:25:45.885Z,12.40
2018-06-13T20:28:19.108Z,13.20
2018-06-13T20:30:52.468Z,13.70
2018-06-13T20:33:20.060Z,12.70
2018-06-13T20:35:47.936Z,13.40
2018-06-13T20:38:15.549Z,13.80
2018-06-13T20:40:43.149Z,13.50
2018-06-13T20:43:10.716Z,13.80
2018-06-13T20:45:38.351Z,15.93
2018-06-13T20:48:05.941Z,12.37
2018-06-13T20:50:33.564Z,12.27
2018-06-13T20:53:01.169Z,12.97
2018-06-13T20:55:28.783Z,14.10
2018-06-13T20:57:56.377Z,13.93
2018-06-13T21:00:23.988Z,13.73
2018-06-13T21:02:51.592Z,13.30
2018-06-13T21:05:19.797Z,16.87
2018-06-13T21:07:47.413Z,15.17
2018-06-13T21:10:15.023Z,16.73
2018-06-13T21:12:43.585Z,16.63
2018-06-13T21:15:12.169Z,17.93
2018-06-13T21:17:39.762Z,15.80
2018-06-13T21:20:07.361Z,16.47
2018-06-13T21:22:34.921Z,19.20
2018-06-13T21:25:02.564Z,18.30
2018-06-13T21:27:30.144Z,16.00
2018-06-13T21:29:57.761Z,15.97
2018-06-13T21:32:25.341Z,24.03
2018-06-13T21:34:53.730Z,20.90
2018-06-13T21:37:21.343Z,21.07
2018-06-13T21:39:48.952Z,17.87
2018-06-13T21:42:16.545Z,16.97
2018-06-13T21:44:44.108Z,17.37
2018-06-13T21:47:11.694Z,18.00
2018-06-13T21:49:39.313Z,16.57
2018-06-13T21:52:06.907Z,15.97
2018-06-13T21:54:34.452Z,16.70
2018-06-13T21:57:02.021Z,19.30
2018-06-13T21:59:29.908Z,18.53
2018-06-13T22:01:57.498Z,15.90
2018-06-13T22:04:25.080Z,18.17
2018-06-13T22:06:52.788Z,17.10
2018-06-13T22:09:20.380Z,17.47
2018-06-13T22:11:53.905Z,19.10
2018-06-13T22:14:22.925Z,16.37
2018-06-13T22:16:51.086Z,18.00
2018-06-13T22:19:18.856Z,17.77
2018-06-13T22:21:46.604Z,18.73
2018-06-13T22:24:14.197Z,17.00
2018-06-13T22:26:41.756Z,17.90
2018-06-13T22:29:09.429Z,18.30
2018-06-13T22:31:37.144Z,18.00
2018-06-13T22:34:04.769Z,16.03
2018-06-13T22:36:32.342Z,18.60
2018-06-13T22:38:59.949Z,17.70
2018-06-13T22:41:28.040Z,19.10
2018-06-13T22:43:55.881Z,17.50
2018-06-13T22:46:23.456Z,19.10
2018-06-13T22:48:51.068Z,18.70
2018-06-13T22:51:19.342Z,18.63
2018-06-13T22:53:46.981Z,17.60
2018-06-13T22:56:14.589Z,18.60
2018-06-13T22:58:42.176Z,19.03
2018-06-13T23:01:10.848Z,17.67
2018-06-13T23:03:38.425Z,17.50
2018-06-13T23:06:07.196Z,18.15
2018-06-13T23:08:35.582Z,17.43
2018-06-13T23:11:03.268Z,18.20
2018-06-13T23:13:30.812Z,17.67
2018-06-13T23:15:58.397Z,18.90
2018-06-13T23:18:26.848Z,18.77
2018-06-13T23:20:54.453Z,18.27
2018-06-13T23:23:22.052Z,20.50
2018-06-13T23:25:51.328Z,19.27
2018-06-13T23:28:19.081Z,18.02
2018-06-13T23:30:46.713Z,19.57
2018-06-13T23:33:14.301Z,17.43
2018-06-13T23:35:41.946Z,19.73
2018-06-13T23:38:09.661Z,18.17
2018-06-13T23:40:37.418Z,19.52
2018-06-13T23:43:05.264Z,16.83
2018-06-13T23:45:32.832Z,17.52
2018-06-13T23:48:00.501Z,16.30
2018-06-13T23:50:28.214Z,18.17
2018-06-13T23:52:55.841Z,16.47
2018-06-13T23:55:23.437Z,16.00
2018-06-13T23:57:51.036Z,17.53
